sensor_id;sensor_type;location;lat;lon;timestamp;temperature;humidity
30385;DHT22;17181;51.002;4.096;2023-04-01T00:00:55;10.80;99.90
30385;DHT22;17181;51.002;4.096;2023-04-01T00:03:22;10.70;99.90
30385;DHT22;17181;51.002;4.096;2023-04-01T00:05:49;10.80;99.90
30385;DHT22;17181;51.002;4.096;2023-04-01T00:08:14;10.70;99.90
30385;DHT22;17181;51.002;4.096;2023-04-01T00:10:40;10.70;99.90
30385;DHT22;17181;51.002;4.096;2023-04-01T00:13:07;10.70;99.90
30385;DHT22;17181;51.002;4.096;2023-04-01T00:15:33;10.70;99.90
30385;DHT22;17181;51.002;4.096;2023-04-01T00:17:59;10.70;99.90
30385;DHT22;17181;51.002;4.096;2023-04-01T00:20:25;10.70;99.90
30385;DHT22;17181;51.002;4.096;2023-04-01T00:22:51;10.70;99.90
30385;DHT22;17181;51.002;4.096;2023-04-01T00:25:17;10.70;99.90
30385;DHT22;17181;51.002;4.096;2023-04-01T00:27:44;10.70;99.90
30385;DHT22;17181;51.002;4.096;2023-04-01T00:30:10;10.70;99.90
30385;DHT22;17181;51.002;4.096;2023-04-01T00:32:36;10.70;99.90
30385;DHT22;17181;51.002;4.096;2023-04-01T00:35:02;10.70;99.90
30385;DHT22;17181;51.002;4.096;2023-04-01T00:37:28;10.70;99.90
30385;DHT22;17181;51.002;4.096;2023-04-01T00:39:54;10.80;99.90
30385;DHT22;17181;51.002;4.096;2023-04-01T00:42:20;10.80;99.90
30385;DHT22;17181;51.002;4.096;2023-04-01T00:44:54;10.70;99.90
30385;DHT22;17181;51.002;4.096;2023-04-01T00:47:21;10.70;99.90
30385;DHT22;17181;51.002;4.096;2023-04-01T00:49:50;10.70;99.90
30385;DHT22;17181;51.002;4.096;2023-04-01T00:52:22;10.70;99.90
30385;DHT22;17181;51.002;4.096;2023-04-01T00:54:53;10.70;99.90
30385;DHT22;17181;51.002;4.096;2023-04-01T00:57:41;10.70;99.90
30385;DHT22;17181;51.002;4.096;2023-04-01T01:00:11;10.70;99.90
30385;DHT22;17181;51.002;4.096;2023-04-01T01:02:41;10.70;99.90
30385;DHT22;17181;51.002;4.096;2023-04-01T01:05:11;10.70;99.90
30385;DHT22;17181;51.002;4.096;2023-04-01T01:10:38;10.70;99.90
30385;DHT22;17181;51.002;4.096;2023-04-01T01:13:23;10.70;99.90
30385;DHT22;17181;51.002;4.096;2023-04-01T01:18:43;10.70;99.90
30385;DHT22;17181;51.002;4.096;2023-04-01T01:24:29;10.70;99.90
30385;DHT22;17181;51.002;4.096;2023-04-01T01:27:19;10.70;99.90
30385;DHT22;17181;51.002;4.096;2023-04-01T01:38:10;10.50;99.90
30385;DHT22;17181;51.002;4.096;2023-04-01T01:40:40;10.50;99.90
30385;DHT22;17181;51.002;4.096;2023-04-01T01:43:10;10.50;99.90
30385;DHT22;17181;51.002;4.096;2023-04-01T01:45:40;10.40;99.90
30385;DHT22;17181;51.002;4.096;2023-04-01T01:48:09;10.40;99.90
30385;DHT22;17181;51.002;4.096;2023-04-01T01:50:36;10.40;99.90
30385;DHT22;17181;51.002;4.096;2023-04-01T01:53:09;10.40;99.90
30385;DHT22;17181;51.002;4.096;2023-04-01T01:55:41;10.40;99.90
30385;DHT22;17181;51.002;4.096;2023-04-01T01:58:33;10.40;99.90
30385;DHT22;17181;51.002;4.096;2023-04-01T02:01:11;10.40;99.90
30385;DHT22;17181;51.002;4.096;2023-04-01T02:03:39;10.40;99.90
30385;DHT22;17181;51.002;4.096;2023-04-01T02:06:12;10.40;99.90
30385;DHT22;17181;51.002;4.096;2023-04-01T02:08:49;10.40;99.90
30385;DHT22;17181;51.002;4.096;2023-04-01T02:11:19;10.40;99.90
30385;DHT22;17181;51.002;4.096;2023-04-01T02:16:25;10.40;99.90
30385;DHT22;17181;51.002;4.096;2023-04-01T02:18:55;10.40;99.90
30385;DHT22;17181;51.002;4.096;2023-04-01T02:21:25;10.40;99.90
30385;DHT22;17181;51.002;4.096;2023-04-01T02:23:53;10.30;99.90
30385;DHT22;17181;51.002;4.096;2023-04-01T02:26:20;10.30;99.90
30385;DHT22;17181;51.002;4.096;2023-04-01T02:28:48;10.30;99.90
30385;DHT22;17181;51.002;4.096;2023-04-01T02:31:16;10.30;99.90
30385;DHT22;17181;51.002;4.096;2023-04-01T02:33:42;10.30;99.90
30385;DHT22;17181;51.002;4.096;2023-04-01T02:36:15;10.20;99.90
30385;DHT22;17181;51.002;4.096;2023-04-01T02:38:43;10.30;99.90
30385;DHT22;17181;51.002;4.096;2023-04-01T02:41:10;10.40;99.90
30385;DHT22;17181;51.002;4.096;2023-04-01T02:43:36;10.30;99.90
30385;DHT22;17181;51.002;4.096;2023-04-01T02:46:02;10.40;99.90
30385;DHT22;17181;51.002;4.096;2023-04-01T02:48:28;10.40;99.90
30385;DHT22;17181;51.002;4.096;2023-04-01T02:50:54;10.30;99.90
30385;DHT22;17181;51.002;4.096;2023-04-01T02:53:20;10.40;99.90
30385;DHT22;17181;51.002;4.096;2023-04-01T02:55:46;10.30;99.90
30385;DHT22;17181;51.002;4.096;2023-04-01T02:58:12;10.40;99.90
30385;DHT22;17181;51.002;4.096;2023-04-01T03:00:37;10.30;99.90
30385;DHT22;17181;51.002;4.096;2023-04-01T03:03:03;10.30;99.90
30385;DHT22;17181;51.002;4.096;2023-04-01T03:05:29;10.30;99.90
30385;DHT22;17181;51.002;4.096;2023-04-01T03:07:56;10.40;99.90
30385;DHT22;17181;51.002;4.096;2023-04-01T03:10:22;10.40;99.90
30385;DHT22;17181;51.002;4.096;2023-04-01T03:12:48;10.40;99.90
30385;DHT22;17181;51.002;4.096;2023-04-01T03:15:14;10.40;99.90
30385;DHT22;17181;51.002;4.096;2023-04-01T03:17:41;10.40;99.90
30385;DHT22;17181;51.002;4.096;2023-04-01T03:20:08;10.40;99.90
30385;DHT22;17181;51.002;4.096;2023-04-01T03:22:35;10.40;99.90
30385;DHT22;17181;51.002;4.096;2023-04-01T03:25:01;10.40;99.90
30385;DHT22;17181;51.002;4.096;2023-04-01T03:27:29;10.40;99.90
30385;DHT22;17181;51.002;4.096;2023-04-01T03:29:55;10.40;99.90
30385;DHT22;17181;51.002;4.096;2023-04-01T03:32:20;10.40;99.90
30385;DHT22;17181;51.002;4.096;2023-04-01T03:34:46;10.40;99.90
30385;DHT22;17181;51.002;4.096;2023-04-01T03:37:12;10.30;99.90
30385;DHT22;17181;51.002;4.096;2023-04-01T03:39:38;10.30;99.90
30385;DHT22;17181;51.002;4.096;2023-04-01T03:42:04;10.30;99.90
30385;DHT22;17181;51.002;4.096;2023-04-01T03:44:32;10.30;99.90
30385;DHT22;17181;51.002;4.096;2023-04-01T03:46:59;10.30;99.90
30385;DHT22;17181;51.002;4.096;2023-04-01T03:49:26;10.40;99.90
30385;DHT22;17181;51.002;4.096;2023-04-01T03:51:51;10.40;99.90
30385;DHT22;17181;51.002;4.096;2023-04-01T03:54:18;10.40;99.90
30385;DHT22;17181;51.002;4.096;2023-04-01T03:56:45;10.40;99.90
30385;DHT22;17181;51.002;4.096;2023-04-01T03:59:12;10.40;99.90
30385;DHT22;17181;51.002;4.096;2023-04-01T04:01:38;10.40;99.90
30385;DHT22;17181;51.002;4.096;2023-04-01T04:04:04;10.40;99.90
30385;DHT22;17181;51.002;4.096;2023-04-01T04:06:30;10.40;99.90
30385;DHT22;17181;51.002;4.096;2023-04-01T04:08:55;10.40;99.90
30385;DHT22;17181;51.002;4.096;2023-04-01T04:11:22;10.40;99.90
30385;DHT22;17181;51.002;4.096;2023-04-01T04:13:50;10.40;99.90
30385;DHT22;17181;51.002;4.096;2023-04-01T04:16:18;10.40;99.90
30385;DHT22;17181;51.002;4.096;2023-04-01T04:18:47;10.30;99.90
30385;DHT22;17181;51.002;4.096;2023-04-01T04:21:14;10.40;99.90
30385;DHT22;17181;51.002;4.096;2023-04-01T04:23:42;10.40;99.90
30385;DHT22;17181;51.002;4.096;2023-04-01T04:26:11;10.40;99.90
30385;DHT22;17181;51.002;4.096;2023-04-01T04:28:37;10.40;99.90
30385;DHT22;17181;51.002;4.096;2023-04-01T04:31:04;10.40;99.90
30385;DHT22;17181;51.002;4.096;2023-04-01T04:33:34;10.30;99.90
30385;DHT22;17181;51.002;4.096;2023-04-01T04:36:01;10.30;99.90
30385;DHT22;17181;51.002;4.096;2023-04-01T04:38:27;10.30;99.90
30385;DHT22;17181;51.002;4.096;2023-04-01T04:40:53;10.30;99.90
30385;DHT22;17181;51.002;4.096;2023-04-01T04:43:19;10.20;99.90
30385;DHT22;17181;51.002;4.096;2023-04-01T04:45:45;10.20;99.90
30385;DHT22;17181;51.002;4.096;2023-04-01T04:48:13;10.20;99.90
30385;DHT22;17181;51.002;4.096;2023-04-01T04:50:46;10.20;99.90
30385;DHT22;17181;51.002;4.096;2023-04-01T04:53:13;10.30;99.90
30385;DHT22;17181;51.002;4.096;2023-04-01T04:55:47;10.30;99.90
30385;DHT22;17181;51.002;4.096;2023-04-01T04:58:31;10.30;99.90
30385;DHT22;17181;51.002;4.096;2023-04-01T05:00:58;10.20;99.90
30385;DHT22;17181;51.002;4.096;2023-04-01T05:03:29;10.20;99.90
30385;DHT22;17181;51.002;4.096;2023-04-01T05:05:55;10.30;99.90
30385;DHT22;17181;51.002;4.096;2023-04-01T05:08:20;10.30;99.90
30385;DHT22;17181;51.002;4.096;2023-04-01T05:10:46;10.20;99.90
30385;DHT22;17181;51.002;4.096;2023-04-01T05:13:12;10.20;99.90
30385;DHT22;17181;51.002;4.096;2023-04-01T05:15:39;10.20;99.90
30385;DHT22;17181;51.002;4.096;2023-04-01T05:18:06;10.20;99.90
30385;DHT22;17181;51.002;4.096;2023-04-01T05:20:32;10.20;99.90
30385;DHT22;17181;51.002;4.096;2023-04-01T05:22:59;10.20;99.90
30385;DHT22;17181;51.002;4.096;2023-04-01T05:25:25;10.20;99.90
30385;DHT22;17181;51.002;4.096;2023-04-01T05:27:51;10.30;99.90
30385;DHT22;17181;51.002;4.096;2023-04-01T05:30:20;10.20;99.90
30385;DHT22;17181;51.002;4.096;2023-04-01T05:33:00;10.20;99.90
30385;DHT22;17181;51.002;4.096;2023-04-01T05:35:26;10.20;99.90
30385;DHT22;17181;51.002;4.096;2023-04-01T05:37:52;10.20;99.90
30385;DHT22;17181;51.002;4.096;2023-04-01T05:40:20;10.20;99.90
30385;DHT22;17181;51.002;4.096;2023-04-01T05:42:47;10.20;99.90
30385;DHT22;17181;51.002;4.096;2023-04-01T05:45:14;10.20;99.90
30385;DHT22;17181;51.002;4.096;2023-04-01T05:48:16;10.20;99.90
30385;DHT22;17181;51.002;4.096;2023-04-01T05:50:43;10.20;99.90
30385;DHT22;17181;51.002;4.096;2023-04-01T05:53:10;10.20;99.90
30385;DHT22;17181;51.002;4.096;2023-04-01T05:55:37;10.20;99.90
30385;DHT22;17181;51.002;4.096;2023-04-01T05:58:03;10.20;99.90
30385;DHT22;17181;51.002;4.096;2023-04-01T06:00:30;10.10;99.90
30385;DHT22;17181;51.002;4.096;2023-04-01T06:02:59;10.10;99.90
30385;DHT22;17181;51.002;4.096;2023-04-01T06:05:28;10.20;99.90
30385;DHT22;17181;51.002;4.096;2023-04-01T06:08:17;10.20;99.90
30385;DHT22;17181;51.002;4.096;2023-04-01T06:11:04;10.10;99.90
30385;DHT22;17181;51.002;4.096;2023-04-01T06:14:10;10.10;99.90
30385;DHT22;17181;51.002;4.096;2023-04-01T06:17:00;10.10;99.90
30385;DHT22;17181;51.002;4.096;2023-04-01T06:31:13;10.10;99.90
30385;DHT22;17181;51.002;4.096;2023-04-01T06:33:51;10.10;99.90
30385;DHT22;17181;51.002;4.096;2023-04-01T06:44:37;10.00;99.90
30385;DHT22;17181;51.002;4.096;2023-04-01T06:50:29;10.00;99.90
30385;DHT22;17181;51.002;4.096;2023-04-01T06:53:31;10.00;99.90
30385;DHT22;17181;51.002;4.096;2023-04-01T06:56:28;10.00;99.90
30385;DHT22;17181;51.002;4.096;2023-04-01T06:59:17;10.00;99.90
30385;DHT22;17181;51.002;4.096;2023-04-01T07:01:50;10.10;99.90
30385;DHT22;17181;51.002;4.096;2023-04-01T07:04:31;10.10;99.90
30385;DHT22;17181;51.002;4.096;2023-04-01T07:09:39;10.10;99.90
30385;DHT22;17181;51.002;4.096;2023-04-01T07:12:46;10.20;99.90
30385;DHT22;17181;51.002;4.096;2023-04-01T07:15:41;10.20;99.90
30385;DHT22;17181;51.002;4.096;2023-04-01T07:18:23;10.20;99.90
30385;DHT22;17181;51.002;4.096;2023-04-01T07:20:53;10.10;99.90
30385;DHT22;17181;51.002;4.096;2023-04-01T07:23:28;10.10;99.90
30385;DHT22;17181;51.002;4.096;2023-04-01T07:26:30;10.10;99.90
30385;DHT22;17181;51.002;4.096;2023-04-01T07:29:12;10.10;99.90
30385;DHT22;17181;51.002;4.096;2023-04-01T07:32:20;10.10;99.90
30385;DHT22;17181;51.002;4.096;2023-04-01T07:37:46;10.20;99.90
30385;DHT22;17181;51.002;4.096;2023-04-01T07:40:37;10.20;99.90
30385;DHT22;17181;51.002;4.096;2023-04-01T07:49:16;10.20;99.90
30385;DHT22;17181;51.002;4.096;2023-04-01T07:52:08;10.20;99.90
30385;DHT22;17181;51.002;4.096;2023-04-01T08:06:18;10.30;99.90
30385;DHT22;17181;51.002;4.096;2023-04-01T08:08:56;10.30;99.90
30385;DHT22;17181;51.002;4.096;2023-04-01T08:15:00;10.30;99.90
30385;DHT22;17181;51.002;4.096;2023-04-01T08:18:06;10.30;99.90
30385;DHT22;17181;51.002;4.096;2023-04-01T08:23:33;10.40;99.90
30385;DHT22;17181;51.002;4.096;2023-04-01T08:26:32;10.40;99.90
30385;DHT22;17181;51.002;4.096;2023-04-01T08:29:10;10.50;99.90
30385;DHT22;17181;51.002;4.096;2023-04-01T08:31:45;10.40;99.90
30385;DHT22;17181;51.002;4.096;2023-04-01T08:34:19;10.50;99.90
30385;DHT22;17181;51.002;4.096;2023-04-01T08:36:51;10.50;99.90
30385;DHT22;17181;51.002;4.096;2023-04-01T08:39:29;10.50;99.90
30385;DHT22;17181;51.002;4.096;2023-04-01T08:45:21;10.50;99.90
30385;DHT22;17181;51.002;4.096;2023-04-01T09:11:56;10.40;99.90
30385;DHT22;17181;51.002;4.096;2023-04-01T09:24:59;10.60;99.90
30385;DHT22;17181;51.002;4.096;2023-04-01T09:30:42;10.60;99.90
30385;DHT22;17181;51.002;4.096;2023-04-01T09:42:28;10.60;99.90
30385;DHT22;17181;51.002;4.096;2023-04-01T09:53:55;10.60;99.90
30385;DHT22;17181;51.002;4.096;2023-04-01T09:56:52;10.60;99.90
30385;DHT22;17181;51.002;4.096;2023-04-01T10:25:01;10.60;99.90
30385;DHT22;17181;51.002;4.096;2023-04-01T10:30:57;10.60;99.90
30385;DHT22;17181;51.002;4.096;2023-04-01T10:36:43;10.60;99.90
30385;DHT22;17181;51.002;4.096;2023-04-01T10:46:17;10.70;99.90
30385;DHT22;17181;51.002;4.096;2023-04-01T10:48:14;10.80;99.90
30385;DHT22;17181;51.002;4.096;2023-04-01T10:51:14;10.80;99.90
30385;DHT22;17181;51.002;4.096;2023-04-01T11:26:27;11.00;99.90
30385;DHT22;17181;51.002;4.096;2023-04-01T11:44:27;10.90;99.90
30385;DHT22;17181;51.002;4.096;2023-04-01T11:47:25;10.90;99.90
30385;DHT22;17181;51.002;4.096;2023-04-01T12:02:19;10.60;99.90
30385;DHT22;17181;51.002;4.096;2023-04-01T12:07:33;10.60;99.90
30385;DHT22;17181;51.002;4.096;2023-04-01T12:10:21;10.50;99.90
30385;DHT22;17181;51.002;4.096;2023-04-01T12:18:50;10.70;99.90
30385;DHT22;17181;51.002;4.096;2023-04-01T13:00:12;10.90;99.90
30385;DHT22;17181;51.002;4.096;2023-04-01T13:11:08;10.90;99.90
30385;DHT22;17181;51.002;4.096;2023-04-01T13:14:05;10.90;99.90
30385;DHT22;17181;51.002;4.096;2023-04-01T13:16:31;11.00;99.90
30385;DHT22;17181;51.002;4.096;2023-04-01T13:19:12;11.00;99.90
30385;DHT22;17181;51.002;4.096;2023-04-01T13:29:54;11.00;99.90
30385;DHT22;17181;51.002;4.096;2023-04-01T13:32:39;11.00;99.90
30385;DHT22;17181;51.002;4.096;2023-04-01T13:38:35;11.00;99.90
30385;DHT22;17181;51.002;4.096;2023-04-01T13:41:24;10.90;99.90
30385;DHT22;17181;51.002;4.096;2023-04-01T13:44:01;10.90;99.90
30385;DHT22;17181;51.002;4.096;2023-04-01T13:46:47;10.90;99.90
30385;DHT22;17181;51.002;4.096;2023-04-01T13:49:54;10.90;99.90
30385;DHT22;17181;51.002;4.096;2023-04-01T13:55:43;10.90;99.90
30385;DHT22;17181;51.002;4.096;2023-04-01T14:04:47;10.80;99.90
30385;DHT22;17181;51.002;4.096;2023-04-01T14:13:18;10.60;99.90
30385;DHT22;17181;51.002;4.096;2023-04-01T14:16:02;10.60;99.90
30385;DHT22;17181;51.002;4.096;2023-04-01T14:24:29;10.60;99.90
30385;DHT22;17181;51.002;4.096;2023-04-01T14:27:18;10.70;99.90
30385;DHT22;17181;51.002;4.096;2023-04-01T14:43:21;10.80;99.90
30385;DHT22;17181;51.002;4.096;2023-04-01T14:54:08;10.80;99.90
30385;DHT22;17181;51.002;4.096;2023-04-01T14:56:42;10.70;99.90
30385;DHT22;17181;51.002;4.096;2023-04-01T15:16:07;10.60;99.90
30385;DHT22;17181;51.002;4.096;2023-04-01T15:21:37;10.70;99.90
30385;DHT22;17181;51.002;4.096;2023-04-01T15:24:21;10.60;99.90
30385;DHT22;17181;51.002;4.096;2023-04-01T15:41:15;10.40;99.90
30385;DHT22;17181;51.002;4.096;2023-04-01T15:43:46;10.30;99.90
30385;DHT22;17181;51.002;4.096;2023-04-01T15:51:47;10.30;99.90
30385;DHT22;17181;51.002;4.096;2023-04-01T15:54:23;10.40;99.90
30385;DHT22;17181;51.002;4.096;2023-04-01T15:57:15;10.50;99.90
30385;DHT22;17181;51.002;4.096;2023-04-01T16:22:59;10.30;99.90
30385;DHT22;17181;51.002;4.096;2023-04-01T16:25:33;10.30;99.90
30385;DHT22;17181;51.002;4.096;2023-04-01T16:36:22;10.20;99.90
30385;DHT22;17181;51.002;4.096;2023-04-01T16:39:05;10.20;99.90
30385;DHT22;17181;51.002;4.096;2023-04-01T16:41:35;10.20;99.90
30385;DHT22;17181;51.002;4.096;2023-04-01T16:44:29;10.30;99.90
30385;DHT22;17181;51.002;4.096;2023-04-01T16:47:09;10.20;99.90
30385;DHT22;17181;51.002;4.096;2023-04-01T16:49:50;10.20;99.90
30385;DHT22;17181;51.002;4.096;2023-04-01T16:52:34;10.10;99.90
30385;DHT22;17181;51.002;4.096;2023-04-01T16:55:16;10.10;99.90
30385;DHT22;17181;51.002;4.096;2023-04-01T16:57:56;10.10;99.90
30385;DHT22;17181;51.002;4.096;2023-04-01T17:01:01;10.10;99.90
30385;DHT22;17181;51.002;4.096;2023-04-01T17:03:36;10.20;99.90
30385;DHT22;17181;51.002;4.096;2023-04-01T17:09:14;10.10;99.90
30385;DHT22;17181;51.002;4.096;2023-04-01T17:14:45;10.10;99.90
30385;DHT22;17181;51.002;4.096;2023-04-01T17:23:00;10.10;99.90
30385;DHT22;17181;51.002;4.096;2023-04-01T17:26:02;10.20;99.90
30385;DHT22;17181;51.002;4.096;2023-04-01T17:28:50;10.20;99.90
30385;DHT22;17181;51.002;4.096;2023-04-01T17:34:44;10.20;99.90
30385;DHT22;17181;51.002;4.096;2023-04-01T17:40:21;10.10;99.90
30385;DHT22;17181;51.002;4.096;2023-04-01T17:46:27;10.10;99.90
30385;DHT22;17181;51.002;4.096;2023-04-01T17:49:02;10.20;99.90
30385;DHT22;17181;51.002;4.096;2023-04-01T17:57:14;10.10;99.90
30385;DHT22;17181;51.002;4.096;2023-04-01T18:08:31;10.10;99.90
30385;DHT22;17181;51.002;4.096;2023-04-01T18:14:02;10.00;99.90
30385;DHT22;17181;51.002;4.096;2023-04-01T18:17:04;10.00;99.90
30385;DHT22;17181;51.002;4.096;2023-04-01T18:22:26;10.00;99.90
30385;DHT22;17181;51.002;4.096;2023-04-01T18:25:01;9.90;99.90
30385;DHT22;17181;51.002;4.096;2023-04-01T18:27:37;9.90;99.90
30385;DHT22;17181;51.002;4.096;2023-04-01T18:30:37;9.90;99.90
30385;DHT22;17181;51.002;4.096;2023-04-01T18:38:57;9.90;99.90
30385;DHT22;17181;51.002;4.096;2023-04-01T18:44:46;9.90;99.90
30385;DHT22;17181;51.002;4.096;2023-04-01T18:47:38;9.90;99.90
30385;DHT22;17181;51.002;4.096;2023-04-01T18:50:32;9.90;99.90
30385;DHT22;17181;51.002;4.096;2023-04-01T18:55:59;9.90;99.90
30385;DHT22;17181;51.002;4.096;2023-04-01T19:03:52;9.80;99.90
30385;DHT22;17181;51.002;4.096;2023-04-01T19:06:35;9.80;99.90
30385;DHT22;17181;51.002;4.096;2023-04-01T19:12:26;9.80;99.90
30385;DHT22;17181;51.002;4.096;2023-04-01T19:20:35;9.90;99.90
30385;DHT22;17181;51.002;4.096;2023-04-01T19:26:17;9.80;99.90
30385;DHT22;17181;51.002;4.096;2023-04-01T19:29:39;9.80;99.90
30385;DHT22;17181;51.002;4.096;2023-04-01T19:31:58;9.90;99.90
30385;DHT22;17181;51.002;4.096;2023-04-01T19:37:32;9.90;99.90
30385;DHT22;17181;51.002;4.096;2023-04-01T19:40:13;9.80;99.90
30385;DHT22;17181;51.002;4.096;2023-04-01T19:48:31;9.90;99.90
30385;DHT22;17181;51.002;4.096;2023-04-01T19:53:59;9.90;99.90
30385;DHT22;17181;51.002;4.096;2023-04-01T19:56:43;9.90;99.90
30385;DHT22;17181;51.002;4.096;2023-04-01T19:59:29;9.90;99.90
30385;DHT22;17181;51.002;4.096;2023-04-01T20:04:44;9.90;99.90
30385;DHT22;17181;51.002;4.096;2023-04-01T20:10:10;9.90;99.90
30385;DHT22;17181;51.002;4.096;2023-04-01T20:17:57;9.90;99.90
30385;DHT22;17181;51.002;4.096;2023-04-01T20:20:27;9.90;99.90
30385;DHT22;17181;51.002;4.096;2023-04-01T20:23:07;9.90;99.90
30385;DHT22;17181;51.002;4.096;2023-04-01T20:26:26;9.90;99.90
30385;DHT22;17181;51.002;4.096;2023-04-01T20:31:59;9.90;99.90
30385;DHT22;17181;51.002;4.096;2023-04-01T20:34:44;9.90;99.90
30385;DHT22;17181;51.002;4.096;2023-04-01T20:42:20;10.00;99.90
30385;DHT22;17181;51.002;4.096;2023-04-01T20:53:15;10.00;99.90
30385;DHT22;17181;51.002;4.096;2023-04-01T20:58:44;10.00;99.90
30385;DHT22;17181;51.002;4.096;2023-04-01T21:15:15;10.10;99.90
30385;DHT22;17181;51.002;4.096;2023-04-01T21:20:47;10.10;99.90
30385;DHT22;17181;51.002;4.096;2023-04-01T21:54:15;10.10;99.90
30385;DHT22;17181;51.002;4.096;2023-04-01T22:08:59;10.20;99.90
30385;DHT22;17181;51.002;4.096;2023-04-01T22:17:19;10.20;99.90
30385;DHT22;17181;51.002;4.096;2023-04-01T22:25:39;10.20;99.90
30385;DHT22;17181;51.002;4.096;2023-04-01T22:30:50;10.20;99.90
30385;DHT22;17181;51.002;4.096;2023-04-01T22:41:34;10.30;99.90
30385;DHT22;17181;51.002;4.096;2023-04-01T22:44:01;10.30;99.90
30385;DHT22;17181;51.002;4.096;2023-04-01T22:46:49;10.30;99.90
30385;DHT22;17181;51.002;4.096;2023-04-01T22:49:45;10.30;99.90
30385;DHT22;17181;51.002;4.096;2023-04-01T22:54:58;10.30;99.90
30385;DHT22;17181;51.002;4.096;2023-04-01T23:00:33;10.30;99.90
30385;DHT22;17181;51.002;4.096;2023-04-01T23:05:40;10.30;99.90
30385;DHT22;17181;51.002;4.096;2023-04-01T23:10:57;10.30;99.90
30385;DHT22;17181;51.002;4.096;2023-04-01T23:13:41;10.40;99.90
30385;DHT22;17181;51.002;4.096;2023-04-01T23:16:08;10.30;99.90
30385;DHT22;17181;51.002;4.096;2023-04-01T23:29:17;10.30;99.90
30385;DHT22;17181;51.002;4.096;2023-04-01T23:31:56;10.30;99.90
30385;DHT22;17181;51.002;4.096;2023-04-01T23:34:28;10.20;99.90
30385;DHT22;17181;51.002;4.096;2023-04-01T23:36:59;10.30;99.90
30385;DHT22;17181;51.002;4.096;2023-04-01T23:39:39;10.20;99.90
30385;DHT22;17181;51.002;4.096;2023-04-01T23:44:46;10.20;99.90
30385;DHT22;17181;51.002;4.096;2023-04-01T23:47:17;10.20;99.90
30385;DHT22;17181;51.002;4.096;2023-04-01T23:49:53;10.20;99.90
30385;DHT22;17181;51.002;4.096;2023-04-01T23:52:42;10.20;99.90
30385;DHT22;17181;51.002;4.096;2023-04-01T23:55:13;10.20;99.90
30385;DHT22;17181;51.002;4.096;2023-04-01T23:57:39;10.10;99.90
